createdAt,value
2018-07-16T00:01:01.834Z,3.47
2018-07-16T00:03:30.643Z,5.83
2018-07-16T00:05:59.670Z,4.00
2018-07-16T00:08:28.959Z,4.10
2018-07-16T00:10:58.609Z,5.90
2018-07-16T00:13:27.701Z,6.93
2018-07-16T00:15:56.964Z,4.27
2018-07-16T00:18:26.099Z,3.50
2018-07-16T00:20:56.156Z,4.87
2018-07-16T00:23:25.401Z,3.97
2018-07-16T00:25:54.524Z,3.73
2018-07-16T00:28:23.580Z,3.90
2018-07-16T00:30:53.391Z,4.00
2018-07-16T00:33:22.483Z,4.07
2018-07-16T00:35:51.551Z,3.80
2018-07-16T00:38:20.960Z,3.80
2018-07-16T00:40:50.058Z,4.43
2018-07-16T00:43:19.137Z,4.70
2018-07-16T00:45:48.597Z,5.17
2018-07-16T00:48:17.689Z,8.03
2018-07-16T00:50:46.795Z,4.53
2018-07-16T00:53:16.179Z,4.87
2018-07-16T00:55:45.273Z,4.20
2018-07-16T00:58:14.660Z,4.17
2018-07-16T01:00:44.066Z,4.80
2018-07-16T01:03:13.309Z,6.00
2018-07-16T01:05:42.401Z,5.33
2018-07-16T01:08:11.282Z,4.93
2018-07-16T01:10:40.269Z,4.90
2018-07-16T01:13:09.923Z,4.80
2018-07-16T01:15:39.173Z,5.50
2018-07-16T01:18:08.241Z,5.80
2018-07-16T01:20:37.287Z,6.13
2018-07-16T01:23:06.385Z,4.97
2018-07-16T01:25:35.361Z,5.10
2018-07-16T01:28:04.679Z,5.60
2018-07-16T01:30:34.189Z,6.67
2018-07-16T01:33:02.899Z,5.77
2018-07-16T01:35:31.905Z,5.30
2018-07-16T01:38:01.416Z,5.80
2018-07-16T01:40:30.527Z,5.33
2018-07-16T01:42:59.629Z,7.53
2018-07-16T01:45:29.025Z,5.80
2018-07-16T01:47:58.143Z,6.80
2018-07-16T01:50:27.243Z,5.87
2018-07-16T01:52:57.573Z,5.93
2018-07-16T01:55:26.363Z,7.20
2018-07-16T01:57:55.733Z,5.60
2018-07-16T02:00:25.323Z,5.43
2018-07-16T02:02:54.691Z,7.20
2018-07-16T02:05:23.834Z,6.47
2018-07-16T02:07:53.317Z,7.10
2018-07-16T02:10:22.415Z,6.30
2018-07-16T02:12:51.533Z,8.07
2018-07-16T02:15:20.903Z,6.23
2018-07-16T02:17:50.233Z,9.60
2018-07-16T02:20:19.329Z,7.83
2018-07-16T02:22:48.555Z,7.87
2018-07-16T02:25:17.331Z,6.37
2018-07-16T02:27:46.003Z,7.60
2018-07-16T02:30:15.060Z,6.70
2018-07-16T02:32:44.143Z,5.67
2018-07-16T02:35:13.244Z,7.13
2018-07-16T02:37:42.489Z,5.70
2018-07-16T02:40:12.322Z,5.73
2018-07-16T02:42:41.444Z,7.97
2018-07-16T02:45:10.844Z,7.40
2018-07-16T02:47:40.226Z,5.83
2018-07-16T02:50:09.362Z,5.57
2018-07-16T02:52:38.686Z,6.93
2018-07-16T02:55:08.427Z,6.50
2018-07-16T02:57:37.528Z,7.20
2018-07-16T03:00:06.590Z,8.40
2018-07-16T03:02:37.376Z,5.90
2018-07-16T03:05:06.948Z,6.47
2018-07-16T03:07:36.190Z,7.03
2018-07-16T03:10:05.314Z,6.67
2018-07-16T03:12:34.416Z,7.30
2018-07-16T03:15:03.917Z,6.90
2018-07-16T03:17:33.026Z,6.87
2018-07-16T03:20:02.128Z,6.93
2018-07-16T03:22:31.411Z,8.50
2018-07-16T03:25:00.502Z,6.67
2018-07-16T03:27:29.613Z,7.43
2018-07-16T03:29:58.978Z,7.00
2018-07-16T03:32:28.066Z,7.53
2018-07-16T03:34:57.150Z,8.20
2018-07-16T03:37:26.610Z,8.20
2018-07-16T03:39:55.648Z,7.00
2018-07-16T03:42:24.789Z,6.70
2018-07-16T03:44:54.145Z,8.87
2018-07-16T03:47:23.320Z,8.20
2018-07-16T03:49:52.396Z,6.77
2018-07-16T03:52:21.757Z,9.57
2018-07-16T03:54:50.884Z,7.00
2018-07-16T03:57:19.978Z,6.80
2018-07-16T03:59:49.393Z,9.47
2018-07-16T04:02:18.498Z,7.87
2018-07-16T04:04:47.860Z,12.03
2018-07-16T04:07:17.026Z,7.20
2018-07-16T04:09:46.120Z,7.60
2018-07-16T04:12:15.202Z,7.10
2018-07-16T04:14:44.532Z,10.03
2018-07-16T04:17:13.656Z,9.70
2018-07-16T04:19:42.755Z,9.30
2018-07-16T04:22:12.134Z,14.33
2018-07-16T04:24:42.069Z,9.13
2018-07-16T04:27:11.208Z,9.43
2018-07-16T04:29:40.674Z,7.23
2018-07-16T04:32:10.054Z,10.80
2018-07-16T04:34:39.174Z,8.27
2018-07-16T04:37:08.589Z,11.00
2018-07-16T04:39:37.946Z,6.73
2018-07-16T04:42:07.096Z,8.30
2018-07-16T04:44:36.462Z,7.00
2018-07-16T04:47:05.609Z,7.40
2018-07-16T04:49:34.719Z,9.53
2018-07-16T04:52:04.052Z,9.63
2018-07-16T04:54:33.137Z,8.30
2018-07-16T04:57:02.232Z,14.90
2018-07-16T04:59:31.414Z,12.70
2018-07-16T05:02:00.640Z,9.20
2018-07-16T05:04:30.265Z,9.30
2018-07-16T05:07:00.160Z,11.17
2018-07-16T05:09:29.882Z,14.33
2018-07-16T05:11:59.002Z,14.57
2018-07-16T05:14:28.361Z,14.53
2018-07-16T05:16:57.521Z,13.60
2018-07-16T05:19:26.671Z,13.40
2018-07-16T05:21:56.279Z,20.40
2018-07-16T05:24:25.404Z,16.40
2018-07-16T05:26:55.920Z,17.63
2018-07-16T05:29:25.101Z,13.57
2018-07-16T05:31:54.865Z,18.77
2018-07-16T05:34:23.872Z,17.80
2018-07-16T05:36:53.562Z,15.03
2018-07-16T05:39:22.706Z,18.50
2018-07-16T05:41:51.858Z,20.63
2018-07-16T05:44:21.244Z,21.50
2018-07-16T05:46:49.997Z,18.87
2018-07-16T05:49:18.992Z,17.33
2018-07-16T05:51:48.338Z,22.53
2018-07-16T05:54:17.456Z,17.60
2018-07-16T05:56:46.578Z,21.07
2018-07-16T05:59:16.090Z,21.57
2018-07-16T06:01:45.750Z,20.97
2018-07-16T06:04:14.852Z,22.27
2018-07-16T06:06:44.294Z,20.40
2018-07-16T06:09:13.987Z,19.13
2018-07-16T06:11:43.122Z,20.23
2018-07-16T06:14:12.518Z,19.10
2018-07-16T06:16:41.339Z,22.90
2018-07-16T06:19:10.349Z,15.63
2018-07-16T06:21:39.965Z,26.00
2018-07-16T06:24:09.116Z,18.63
2018-07-16T06:26:38.249Z,19.30
2018-07-16T06:29:07.649Z,18.63
2018-07-16T06:31:36.826Z,17.53
2018-07-16T06:34:06.159Z,23.00
2018-07-16T06:36:35.322Z,16.80
2018-07-16T06:39:05.627Z,17.23
2018-07-16T06:41:35.338Z,16.63
2018-07-16T06:44:04.217Z,14.60
2018-07-16T06:46:34.038Z,17.80
2018-07-16T06:49:02.847Z,17.00
2018-07-16T06:51:32.139Z,15.83
2018-07-16T06:54:02.487Z,16.93
2018-07-16T06:56:31.748Z,16.60
2018-07-16T06:59:00.849Z,15.40
2018-07-16T07:01:29.732Z,13.50
2018-07-16T07:03:59.113Z,14.33
2018-07-16T07:06:28.785Z,13.97
2018-07-16T07:08:57.943Z,13.33
2018-07-16T07:11:27.809Z,13.33
2018-07-16T07:13:57.691Z,12.60
2018-07-16T07:16:27.471Z,13.07
2018-07-16T07:18:56.740Z,9.87
2018-07-16T07:21:25.895Z,17.10
2018-07-16T07:23:55.015Z,13.63
2018-07-16T07:26:24.629Z,18.40
2018-07-16T07:28:53.747Z,13.70
2018-07-16T07:31:22.841Z,9.70
2018-07-16T07:33:52.233Z,12.17
2018-07-16T07:36:21.349Z,10.53
2018-07-16T07:38:50.474Z,11.50
2018-07-16T07:41:19.937Z,11.60
2018-07-16T07:43:49.087Z,9.57
2018-07-16T07:46:18.173Z,11.47
2018-07-16T07:48:47.735Z,11.30
2018-07-16T07:51:17.452Z,13.10
2018-07-16T07:53:46.673Z,9.90
2018-07-16T07:56:15.565Z,11.97
2018-07-16T07:58:44.607Z,10.57
2018-07-16T08:01:13.718Z,8.87
2018-07-16T08:03:43.391Z,9.73
2018-07-16T08:06:12.969Z,8.30
2018-07-16T08:08:42.100Z,8.70
2018-07-16T08:11:11.775Z,8.00
2018-07-16T08:13:41.148Z,11.63
2018-07-16T08:16:10.214Z,16.00
2018-07-16T08:18:40.375Z,10.83
2018-07-16T08:21:09.611Z,10.70
2018-07-16T08:23:38.784Z,16.80
2018-07-16T08:26:08.709Z,15.93
2018-07-16T08:28:38.406Z,9.80
2018-07-16T08:31:07.238Z,10.57
2018-07-16T08:33:36.794Z,12.53
2018-07-16T08:36:06.011Z,17.23
2018-07-16T08:38:35.137Z,13.37
2018-07-16T08:41:04.634Z,15.13
2018-07-16T08:43:33.787Z,15.57
2018-07-16T08:46:03.533Z,11.47
2018-07-16T08:48:32.845Z,13.90
2018-07-16T08:51:02.014Z,13.80
2018-07-16T08:53:31.215Z,7.43
2018-07-16T08:56:00.497Z,12.23
2018-07-16T08:58:29.617Z,15.00
2018-07-16T09:00:58.809Z,18.37
2018-07-16T09:03:28.085Z,10.30
2018-07-16T09:06:03.445Z,9.77
2018-07-16T09:08:33.350Z,7.33
2018-07-16T09:11:02.551Z,9.43
2018-07-16T09:13:31.737Z,9.27
2018-07-16T09:16:01.199Z,11.90
2018-07-16T09:18:30.345Z,10.03
2018-07-16T09:20:59.489Z,6.37
2018-07-16T09:23:28.729Z,8.27
2018-07-16T09:25:57.939Z,6.80
2018-07-16T09:28:27.084Z,6.87
2018-07-16T09:30:57.059Z,9.70
2018-07-16T09:33:26.161Z,5.70
2018-07-16T09:35:56.559Z,16.70
2018-07-16T09:38:26.205Z,11.30
2018-07-16T09:40:55.363Z,7.83
2018-07-16T09:43:24.564Z,5.30
2018-07-16T09:45:53.849Z,5.73
2018-07-16T09:48:23.893Z,12.93
2018-07-16T09:50:54.181Z,11.47
2018-07-16T09:53:23.785Z,8.30
2018-07-16T09:55:52.939Z,5.50
2018-07-16T09:58:22.120Z,5.63
2018-07-16T10:00:56.573Z,7.43
2018-07-16T10:03:25.733Z,7.53
2018-07-16T10:05:54.975Z,7.90
2018-07-16T10:08:24.207Z,13.27
2018-07-16T10:10:53.967Z,6.33
2018-07-16T10:13:23.460Z,12.23
2018-07-16T10:15:52.607Z,6.33
2018-07-16T10:18:22.199Z,5.63
2018-07-16T10:20:51.560Z,8.50
2018-07-16T10:23:21.569Z,8.60
2018-07-16T10:25:51.414Z,5.90
2018-07-16T10:28:20.512Z,5.30
2018-07-16T10:30:49.679Z,13.90
2018-07-16T10:33:18.799Z,6.20
2018-07-16T10:35:48.145Z,9.97
2018-07-16T10:38:17.306Z,16.60
2018-07-16T10:40:48.120Z,7.07
2018-07-16T10:43:17.401Z,7.27
2018-07-16T10:45:46.595Z,7.47
2018-07-16T10:48:15.417Z,8.17
2018-07-16T10:50:44.892Z,7.83
2018-07-16T10:53:15.111Z,7.77
2018-07-16T10:55:43.917Z,4.73
2018-07-16T10:58:13.113Z,4.40
2018-07-16T11:00:42.498Z,4.07
2018-07-16T11:03:11.709Z,5.13
2018-07-16T11:05:43.049Z,6.17
2018-07-16T11:08:12.433Z,3.93
2018-07-16T11:10:41.848Z,3.93
2018-07-16T11:13:11.025Z,4.20
2018-07-16T11:15:40.791Z,4.10
2018-07-16T11:18:10.212Z,3.83
2018-07-16T11:20:39.597Z,7.70
2018-07-16T11:23:08.719Z,3.87
2018-07-16T11:25:38.010Z,4.03
2018-07-16T11:28:07.199Z,3.97
2018-07-16T11:30:36.359Z,3.67
2018-07-16T11:33:05.940Z,4.27
2018-07-16T11:35:35.149Z,3.43
2018-07-16T11:38:04.330Z,8.50
2018-07-16T11:40:33.660Z,3.50
2018-07-16T11:43:02.862Z,3.87
2018-07-16T11:45:32.057Z,3.67
2018-07-16T11:48:01.450Z,5.70
2018-07-16T11:50:31.679Z,4.10
2018-07-16T11:53:00.455Z,6.43
2018-07-16T11:55:29.680Z,3.60
2018-07-16T11:57:58.825Z,6.63
2018-07-16T12:00:28.692Z,3.80
2018-07-16T12:02:58.175Z,3.80
2018-07-16T12:05:28.337Z,5.27
2018-07-16T12:07:58.422Z,3.93
2018-07-16T12:10:27.926Z,4.63
2018-07-16T12:12:57.147Z,4.37
2018-07-16T12:15:26.251Z,3.10
2018-07-16T12:17:55.780Z,2.90
2018-07-16T12:20:25.401Z,4.00
2018-07-16T12:22:54.878Z,2.97
2018-07-16T12:25:25.016Z,4.87
2018-07-16T12:27:54.263Z,3.80
2018-07-16T12:30:23.421Z,14.67
2018-07-16T12:32:52.775Z,3.87
2018-07-16T12:35:21.896Z,6.00
2018-07-16T12:37:51.072Z,3.93
2018-07-16T12:40:20.343Z,6.13
2018-07-16T12:42:49.495Z,3.60
2018-07-16T12:45:19.108Z,4.17
2018-07-16T12:47:48.696Z,4.13
2018-07-16T12:50:17.857Z,5.80
2018-07-16T12:52:47.027Z,4.00
2018-07-16T12:55:16.343Z,5.63
2018-07-16T12:57:45.151Z,4.70
2018-07-16T13:00:14.236Z,4.77
2018-07-16T13:02:43.787Z,3.80
2018-07-16T13:05:12.919Z,4.10
2018-07-16T13:07:42.058Z,4.83
2018-07-16T13:10:11.354Z,5.10
2018-07-16T13:12:40.519Z,4.50
2018-07-16T13:15:09.674Z,4.17
2018-07-16T13:17:38.969Z,5.57
2018-07-16T13:20:08.122Z,4.63
2018-07-16T13:22:37.261Z,4.27
2018-07-16T13:25:07.088Z,4.33
2018-07-16T13:27:36.225Z,4.03
2018-07-16T13:30:05.800Z,4.10
2018-07-16T13:32:35.229Z,5.73
2018-07-16T13:35:04.449Z,4.40
2018-07-16T13:37:33.613Z,6.00
2018-07-16T13:40:03.021Z,4.33
2018-07-16T13:42:32.147Z,7.60
2018-07-16T13:45:01.843Z,4.20
2018-07-16T13:47:31.114Z,4.50
2018-07-16T13:50:00.274Z,6.60
2018-07-16T13:52:29.436Z,4.30
2018-07-16T13:54:58.829Z,5.70
2018-07-16T13:57:28.014Z,4.13
2018-07-16T13:59:57.258Z,4.23
2018-07-16T14:02:26.634Z,4.50
2018-07-16T14:04:55.772Z,4.20
2018-07-16T14:07:24.883Z,8.67
2018-07-16T14:09:54.097Z,4.20
2018-07-16T14:12:23.323Z,6.83
2018-07-16T14:14:52.457Z,6.83
2018-07-16T14:17:21.943Z,4.33
2018-07-16T14:19:52.066Z,5.10
2018-07-16T14:22:21.178Z,3.90
2018-07-16T14:24:50.746Z,4.00
2018-07-16T14:27:20.292Z,4.00
2018-07-16T14:29:49.470Z,4.20
2018-07-16T14:32:19.054Z,4.37
2018-07-16T14:34:48.161Z,4.93
2018-07-16T14:37:18.870Z,3.80
2018-07-16T14:39:48.190Z,4.10
2018-07-16T14:42:17.226Z,4.80
2018-07-16T14:44:46.388Z,6.70
2018-07-16T14:47:15.610Z,4.50
2018-07-16T14:49:44.742Z,4.63
2018-07-16T14:52:13.910Z,3.63
2018-07-16T14:54:43.248Z,3.37
2018-07-16T14:57:12.441Z,3.90
2018-07-16T14:59:41.565Z,4.20
2018-07-16T15:02:11.172Z,3.20
2018-07-16T15:04:40.547Z,8.87
2018-07-16T15:07:09.637Z,4.07
2018-07-16T15:09:38.976Z,3.57
2018-07-16T15:12:08.174Z,3.40
2018-07-16T15:14:37.318Z,3.87
2018-07-16T15:17:06.571Z,3.67
2018-07-16T15:19:35.694Z,4.83
2018-07-16T15:22:04.955Z,3.70
2018-07-16T15:24:34.507Z,3.67
2018-07-16T15:27:03.683Z,3.40
2018-07-16T15:29:33.291Z,3.70
2018-07-16T15:32:02.756Z,3.67
2018-07-16T15:34:33.994Z,3.50
2018-07-16T15:37:03.444Z,3.67
2018-07-16T15:39:32.604Z,3.30
2018-07-16T15:42:01.752Z,3.77
2018-07-16T15:44:31.719Z,4.27
2018-07-16T15:47:00.937Z,3.63
2018-07-16T15:49:31.051Z,3.50
2018-07-16T15:52:00.331Z,4.60
2018-07-16T15:54:29.535Z,5.33
2018-07-16T15:56:59.031Z,3.60
2018-07-16T15:59:28.461Z,4.30
2018-07-16T16:01:57.642Z,6.53
2018-07-16T16:04:26.784Z,3.83
2018-07-16T16:06:56.390Z,3.60
2018-07-16T16:09:25.556Z,3.93
2018-07-16T16:11:54.748Z,3.80
2018-07-16T16:14:24.028Z,4.60
2018-07-16T16:16:53.174Z,4.33
2018-07-16T16:19:22.346Z,3.63
2018-07-16T16:21:51.826Z,3.53
2018-07-16T16:24:21.131Z,4.23
2018-07-16T16:26:50.336Z,3.80
2018-07-16T16:29:20.778Z,4.17
2018-07-16T16:31:51.682Z,3.93
2018-07-16T16:34:21.530Z,4.07
2018-07-16T16:36:50.765Z,4.37
2018-07-16T16:39:22.630Z,4.43
2018-07-16T16:41:54.583Z,4.10
2018-07-16T16:44:23.862Z,3.70
2018-07-16T16:46:53.049Z,3.97
2018-07-16T16:49:22.437Z,3.53
2018-07-16T16:51:51.793Z,7.60
2018-07-16T16:54:21.659Z,4.07
2018-07-16T16:56:50.750Z,3.70
2018-07-16T16:59:20.499Z,3.40
2018-07-16T17:01:49.573Z,3.70
2018-07-16T17:04:18.697Z,3.50
2018-07-16T17:06:47.943Z,5.23
2018-07-16T17:09:17.019Z,3.90
2018-07-16T17:11:46.230Z,3.90
2018-07-16T17:14:15.388Z,4.53
2018-07-16T17:16:44.128Z,3.70
2018-07-16T17:19:13.156Z,3.43
2018-07-16T17:21:42.376Z,3.60
2018-07-16T17:24:11.491Z,5.80
2018-07-16T17:26:40.594Z,3.80
2018-07-16T17:29:09.930Z,3.77
2018-07-16T17:31:39.026Z,3.77
2018-07-16T17:34:08.234Z,4.30
2018-07-16T17:36:37.378Z,4.60
2018-07-16T17:39:08.231Z,9.40
2018-07-16T17:41:37.361Z,4.70
2018-07-16T17:44:06.615Z,4.53
2018-07-16T17:46:36.658Z,4.50
2018-07-16T17:49:05.889Z,5.53
2018-07-16T17:51:34.787Z,4.60
2018-07-16T17:54:03.826Z,4.60
2018-07-16T17:56:32.933Z,6.23
2018-07-16T17:59:02.194Z,5.27
2018-07-16T18:01:30.930Z,12.83
2018-07-16T18:03:59.993Z,5.43
2018-07-16T18:06:29.260Z,5.37
2018-07-16T18:08:58.380Z,5.57
2018-07-16T18:11:27.486Z,6.53
2018-07-16T18:13:56.732Z,5.97
2018-07-16T18:16:25.819Z,5.30
2018-07-16T18:18:54.968Z,12.00
2018-07-16T18:21:24.240Z,9.83
2018-07-16T18:23:53.754Z,14.83
2018-07-16T18:26:22.946Z,5.90
2018-07-16T18:28:52.058Z,7.57
2018-07-16T18:31:21.164Z,7.23
2018-07-16T18:33:50.294Z,5.90
2018-07-16T18:36:20.284Z,5.60
2018-07-16T18:38:49.410Z,4.80
2018-07-16T18:41:18.536Z,5.20
2018-07-16T18:43:47.776Z,4.83
2018-07-16T18:46:16.844Z,4.63
2018-07-16T18:48:46.015Z,6.73
2018-07-16T18:51:15.386Z,5.03
2018-07-16T18:53:44.486Z,4.50
2018-07-16T18:56:13.273Z,4.40
2018-07-16T18:58:42.420Z,5.37
2018-07-16T19:01:11.566Z,6.07
2018-07-16T19:03:40.723Z,4.57
2018-07-16T19:06:10.216Z,7.80
2018-07-16T19:08:38.930Z,10.93
2018-07-16T19:11:07.988Z,17.20
2018-07-16T19:13:37.240Z,9.40
2018-07-16T19:16:06.316Z,9.03
2018-07-16T19:18:35.422Z,11.83
2018-07-16T19:21:04.788Z,12.63
2018-07-16T19:23:33.868Z,13.17
2018-07-16T19:26:03.018Z,12.33
2018-07-16T19:28:32.336Z,8.60
2018-07-16T19:31:01.435Z,9.43
2018-07-16T19:33:30.539Z,7.83
2018-07-16T19:35:59.711Z,11.23
2018-07-16T19:38:28.914Z,6.40
2018-07-16T19:40:57.985Z,8.00
2018-07-16T19:43:27.217Z,9.43
2018-07-16T19:45:56.306Z,7.07
2018-07-16T19:48:25.371Z,7.83
2018-07-16T19:50:54.839Z,5.70
2018-07-16T19:53:23.892Z,4.67
2018-07-16T19:55:53.023Z,6.80
2018-07-16T19:58:22.373Z,4.87
2018-07-16T20:00:51.474Z,5.67
2018-07-16T20:03:20.554Z,4.30
2018-07-16T20:05:49.968Z,4.07
2018-07-16T20:08:19.072Z,4.57
2018-07-16T20:10:48.145Z,4.33
2018-07-16T20:13:17.462Z,11.87
2018-07-16T20:15:46.568Z,4.40
2018-07-16T20:18:15.623Z,11.23
2018-07-16T20:20:53.005Z,4.30
2018-07-16T20:23:21.981Z,5.83
2018-07-16T20:25:52.589Z,3.90
2018-07-16T20:28:21.719Z,4.40
2018-07-16T20:30:50.566Z,4.80
2018-07-16T20:33:19.957Z,7.20
2018-07-16T20:35:49.425Z,5.20
2018-07-16T20:38:18.527Z,4.40
2018-07-16T20:40:48.469Z,4.80
2018-07-16T20:43:17.640Z,4.07
2018-07-16T20:45:46.826Z,3.80
2018-07-16T20:48:15.883Z,4.97
2018-07-16T20:50:45.053Z,3.60
2018-07-16T20:53:14.279Z,4.47
2018-07-16T20:55:43.396Z,5.73
2018-07-16T20:58:12.168Z,3.80
2018-07-16T21:00:41.026Z,7.37
2018-07-16T21:03:10.049Z,3.93
2018-07-16T21:05:39.253Z,3.97
2018-07-16T21:08:08.486Z,3.70
2018-07-16T21:10:37.603Z,3.70
2018-07-16T21:13:06.704Z,3.57
2018-07-16T21:15:35.948Z,3.90
2018-07-16T21:18:04.762Z,4.50
2018-07-16T21:20:33.782Z,3.80
2018-07-16T21:23:02.970Z,3.70
2018-07-16T21:25:32.115Z,4.83
2018-07-16T21:28:01.243Z,4.10
2018-07-16T21:30:30.572Z,4.20
2018-07-16T21:33:00.326Z,3.83
2018-07-16T21:35:29.425Z,3.80
2018-07-16T21:37:58.915Z,3.43
2018-07-16T21:40:28.072Z,3.93
2018-07-16T21:42:57.338Z,5.10
2018-07-16T21:45:26.304Z,3.50
2018-07-16T21:47:55.338Z,3.30
2018-07-16T21:50:24.510Z,4.53
2018-07-16T21:52:53.876Z,3.93
2018-07-16T21:55:23.290Z,5.67
2018-07-16T21:57:52.474Z,5.20
2018-07-16T22:00:29.697Z,8.93
2018-07-16T22:02:59.984Z,3.60
2018-07-16T22:05:29.826Z,3.80
2018-07-16T22:07:59.917Z,3.97
2018-07-16T22:10:29.072Z,4.40
2018-07-16T22:12:58.668Z,3.83
2018-07-16T22:15:28.676Z,3.80
2018-07-16T22:17:58.491Z,5.57
2018-07-16T22:20:28.126Z,4.97
2018-07-16T22:22:57.362Z,4.00
2018-07-16T22:25:26.962Z,4.23
2018-07-16T22:27:56.229Z,6.53
2018-07-16T22:30:25.344Z,4.00
2018-07-16T22:32:54.506Z,3.80
2018-07-16T22:35:24.328Z,6.60
2018-07-16T22:37:53.054Z,4.37
2018-07-16T22:40:22.112Z,4.03
2018-07-16T22:42:51.438Z,4.33
2018-07-16T22:45:21.171Z,4.20
2018-07-16T22:47:50.223Z,4.50
2018-07-16T22:50:19.736Z,5.33
2018-07-16T22:52:48.824Z,4.43
2018-07-16T22:55:17.970Z,5.90
2018-07-16T22:57:47.176Z,3.50
2018-07-16T23:00:16.325Z,4.27
2018-07-16T23:02:45.400Z,4.30
2018-07-16T23:05:15.122Z,4.53
2018-07-16T23:07:44.487Z,4.47
2018-07-16T23:10:13.528Z,4.30
2018-07-16T23:12:42.780Z,4.23
2018-07-16T23:15:11.855Z,6.93
2018-07-16T23:17:40.606Z,4.20
2018-07-16T23:20:09.788Z,7.00
2018-07-16T23:22:47.827Z,4.43
2018-07-16T23:25:17.082Z,4.77
2018-07-16T23:27:46.543Z,4.60
2018-07-16T23:30:15.664Z,6.00
2018-07-16T23:32:45.128Z,4.10
2018-07-16T23:35:14.942Z,4.97
2018-07-16T23:37:44.071Z,4.33
2018-07-16T23:40:13.425Z,4.33
2018-07-16T23:42:42.605Z,4.60
2018-07-16T23:45:12.240Z,5.17
2018-07-16T23:47:41.662Z,4.90
2018-07-16T23:50:10.502Z,5.63
2018-07-16T23:52:39.111Z,4.37
2018-07-16T23:55:08.235Z,5.83
2018-07-16T23:57:37.352Z,8.40
